Time;durP1;ratioP1;P1;durP2;ratioP2;P2;SDS_P1;SDS_P2;PMS_P1;PMS_P2;Temp;Humidity;BMP_temperature;BMP_pressure;BME280_temperature;BME280_humidity;BME280_pressure;Samples;Min_cycle;Max_cycle;Signal;HPM_P1;HPM_P2
2021/04/08 00:00:30;;;;;;;3.43;1.50;;;;;;;;;;4925139;28;20215;-87
2021/04/08 00:02:57;;;;;;;4.53;1.40;;;;;;;;;;4909861;28;20239;-85
2021/04/08 00:05:26;;;;;;;3.20;1.43;;;;;;;;;;4903869;28;20638;-81
2021/04/08 00:07:53;;;;;;;3.77;1.20;;;;;;;;;;4891227;29;20231;-80
2021/04/08 00:10:21;;;;;;;2.43;1.53;;;;;;;;;;4917189;29;20716;-80
2021/04/08 00:12:49;;;;;;;4.33;1.63;;;;;;;;;;4914453;28;21071;-82
2021/04/08 00:15:17;;;;;;;4.07;1.63;;;;;;;;;;4897957;28;20231;-80
2021/04/08 00:17:45;;;;;;;2.50;1.63;;;;;;;;;;4916274;28;20230;-81
2021/04/08 00:20:15;;;;;;;2.77;1.60;;;;;;;;;;4907542;28;20511;-82
2021/04/08 00:22:44;;;;;;;2.17;1.40;;;;;;;;;;4918399;29;20650;-84
2021/04/08 00:25:13;;;;;;;3.17;1.40;;;;;;;;;;4955374;28;20232;-82
2021/04/08 00:27:41;;;;;;;2.43;1.20;;;;;;;;;;4917573;29;20247;-80
2021/04/08 00:30:10;;;;;;;2.50;1.40;;;;;;;;;;4919267;28;20223;-82
2021/04/08 00:32:38;;;;;;;4.33;1.50;;;;;;;;;;4917247;28;20245;-82
2021/04/08 00:35:07;;;;;;;3.03;1.70;;;;;;;;;;4916809;28;20590;-81
2021/04/08 00:37:35;;;;;;;3.67;1.37;;;;;;;;;;4904806;28;20236;-84
2021/04/08 00:40:07;;;;;;;2.53;1.90;;;;;;;;;;4908715;28;20242;-83
2021/04/08 00:42:35;;;;;;;3.20;1.60;;;;;;;;;;4913982;29;20233;-82
2021/04/08 00:45:03;;;;;;;2.23;1.47;;;;;;;;;;4914282;29;20239;-83
2021/04/08 00:47:30;;;;;;;4.03;1.77;;;;;;;;;;4910128;28;20234;-81
2021/04/08 00:49:58;;;;;;;2.83;1.80;;;;;;;;;;4895694;28;20235;-83
2021/04/08 00:52:26;;;;;;;2.33;1.43;;;;;;;;;;4897727;28;20444;-81
2021/04/08 00:54:54;;;;;;;4.70;1.93;;;;;;;;;;4900667;29;20226;-80
2021/04/08 00:57:22;;;;;;;1.90;1.33;;;;;;;;;;4904149;29;20239;-81
2021/04/08 00:59:52;;;;;;;5.83;1.93;;;;;;;;;;4899153;28;20237;-82
2021/04/08 01:02:20;;;;;;;2.60;1.50;;;;;;;;;;4896572;28;20232;-81
2021/04/08 01:04:48;;;;;;;2.67;1.70;;;;;;;;;;4898036;29;20243;-82
2021/04/08 01:07:16;;;;;;;2.67;1.33;;;;;;;;;;4915317;29;20608;-81
2021/04/08 01:09:43;;;;;;;2.07;1.50;;;;;;;;;;4910778;29;20245;-81
2021/04/08 01:12:11;;;;;;;2.20;1.53;;;;;;;;;;4911756;29;20226;-82
2021/04/08 01:14:40;;;;;;;2.17;1.83;;;;;;;;;;4907776;29;20229;-80
2021/04/08 01:17:14;;;;;;;4.50;1.60;;;;;;;;;;4898644;29;20242;-81
2021/04/08 01:20:15;;;;;;;3.13;1.60;;;;;;;;;;4912709;28;20234;-82
2021/04/08 01:23:13;;;;;;;2.10;1.50;;;;;;;;;;4910640;28;20734;-82
2021/04/08 01:26:08;;;;;;;4.03;1.60;;;;;;;;;;4907516;28;20253;-83
2021/04/08 01:28:37;;;;;;;3.40;1.57;;;;;;;;;;4906843;28;20236;-80
2021/04/08 01:31:06;;;;;;;3.07;1.67;;;;;;;;;;4913436;29;20227;-81
2021/04/08 01:33:38;;;;;;;3.17;1.70;;;;;;;;;;4915015;28;20233;-80
2021/04/08 01:36:09;;;;;;;3.60;1.50;;;;;;;;;;4915036;28;20231;-80
2021/04/08 01:38:42;;;;;;;2.63;1.37;;;;;;;;;;4900207;28;20251;-81
2021/04/08 01:41:10;;;;;;;3.80;1.80;;;;;;;;;;4910237;28;20229;-84
2021/04/08 01:43:38;;;;;;;2.53;1.43;;;;;;;;;;4894964;28;20247;-83
2021/04/08 01:46:08;;;;;;;2.57;1.60;;;;;;;;;;4898126;28;20249;-81
2021/04/08 01:48:37;;;;;;;4.47;1.77;;;;;;;;;;4909755;29;20248;-82
2021/04/08 01:51:06;;;;;;;3.97;1.70;;;;;;;;;;4910080;28;20611;-81
2021/04/08 01:53:38;;;;;;;3.10;1.50;;;;;;;;;;4914214;28;20241;-80
2021/04/08 01:56:07;;;;;;;3.77;1.40;;;;;;;;;;4914462;28;20234;-80
2021/04/08 01:58:35;;;;;;;2.23;1.80;;;;;;;;;;4915873;28;20702;-81
2021/04/08 02:01:04;;;;;;;2.30;1.47;;;;;;;;;;4902318;28;20238;-80
2021/04/08 02:03:33;;;;;;;2.57;1.60;;;;;;;;;;4904472;28;20234;-82
2021/04/08 02:06:01;;;;;;;3.97;1.73;;;;;;;;;;4912891;28;20241;-80
2021/04/08 02:08:30;;;;;;;5.07;1.73;;;;;;;;;;4895257;28;20229;-81
2021/04/08 02:10:57;;;;;;;1.70;1.60;;;;;;;;;;4894894;28;20244;-81
2021/04/08 02:13:26;;;;;;;2.77;1.60;;;;;;;;;;4914552;28;20229;-81
2021/04/08 02:15:55;;;;;;;2.63;1.60;;;;;;;;;;4902748;28;20244;-82
2021/04/08 02:18:23;;;;;;;3.57;1.90;;;;;;;;;;4912259;28;20234;-82
2021/04/08 02:20:53;;;;;;;3.03;1.90;;;;;;;;;;4908661;28;20232;-81
2021/04/08 02:23:22;;;;;;;6.60;2.03;;;;;;;;;;4910167;29;20228;-82
2021/04/08 02:25:51;;;;;;;4.47;1.90;;;;;;;;;;4910958;28;20244;-84
2021/04/08 02:28:19;;;;;;;2.33;1.40;;;;;;;;;;4894472;28;20605;-81
2021/04/08 02:30:49;;;;;;;2.70;1.70;;;;;;;;;;4891736;28;20236;-82
2021/04/08 02:33:20;;;;;;;2.73;1.80;;;;;;;;;;4903246;29;20229;-81
2021/04/08 02:35:49;;;;;;;3.73;1.90;;;;;;;;;;4917487;28;20230;-81
2021/04/08 02:38:19;;;;;;;3.00;1.73;;;;;;;;;;4909791;28;23094;-82
2021/04/08 02:40:47;;;;;;;3.00;1.67;;;;;;;;;;4902700;29;20228;-80
2021/04/08 02:43:16;;;;;;;2.73;1.60;;;;;;;;;;4912180;28;20232;-80
2021/04/08 02:45:44;;;;;;;3.00;1.43;;;;;;;;;;4898918;29;20232;-81
2021/04/08 02:48:14;;;;;;;3.70;1.80;;;;;;;;;;4915907;28;20289;-81
2021/04/08 02:50:42;;;;;;;3.80;1.80;;;;;;;;;;4931176;28;20226;-83
2021/04/08 02:53:14;;;;;;;2.07;1.40;;;;;;;;;;4904474;28;20233;-81
2021/04/08 02:55:44;;;;;;;2.73;1.50;;;;;;;;;;4909020;29;20718;-81
2021/04/08 02:58:15;;;;;;;4.07;1.70;;;;;;;;;;4904269;28;20241;-81
2021/04/08 03:00:48;;;;;;;3.37;1.83;;;;;;;;;;4894572;29;20228;-81
2021/04/08 03:03:19;;;;;;;6.87;2.07;;;;;;;;;;4911620;29;20739;-80
2021/04/08 03:05:47;;;;;;;3.47;1.53;;;;;;;;;;4913940;29;20232;-81
2021/04/08 03:08:17;;;;;;;3.10;1.50;;;;;;;;;;4891072;29;20229;-80
2021/04/08 03:10:46;;;;;;;4.43;1.70;;;;;;;;;;4911576;29;20513;-80
2021/04/08 03:13:14;;;;;;;3.33;1.93;;;;;;;;;;4905995;28;20239;-81
2021/04/08 03:15:43;;;;;;;2.80;1.60;;;;;;;;;;4908965;28;20592;-81
2021/04/08 03:18:14;;;;;;;7.37;1.90;;;;;;;;;;4904583;28;20697;-81
2021/04/08 03:20:44;;;;;;;4.93;1.93;;;;;;;;;;4909196;28;20234;-82
2021/04/08 03:23:12;;;;;;;3.90;1.50;;;;;;;;;;4901593;29;20244;-82
2021/04/08 03:25:40;;;;;;;4.10;1.47;;;;;;;;;;4912740;29;20216;-84
2021/04/08 03:28:12;;;;;;;5.20;1.77;;;;;;;;;;4909477;28;20311;-82
2021/04/08 03:30:41;;;;;;;3.13;2.00;;;;;;;;;;4912851;28;20227;-82
2021/04/08 03:33:08;;;;;;;2.93;1.67;;;;;;;;;;4899038;28;20235;-80
2021/04/08 03:35:37;;;;;;;4.00;1.87;;;;;;;;;;4914359;29;20232;-81
2021/04/08 03:38:05;;;;;;;4.23;1.83;;;;;;;;;;4906593;28;20229;-81
2021/04/08 03:40:33;;;;;;;3.90;1.90;;;;;;;;;;4909449;29;20236;-81
2021/04/08 03:43:01;;;;;;;3.57;1.70;;;;;;;;;;4906709;28;20220;-80
2021/04/08 03:45:30;;;;;;;3.17;1.70;;;;;;;;;;4916815;28;20255;-81
2021/04/08 03:48:00;;;;;;;3.63;1.70;;;;;;;;;;4912370;28;20244;-80
2021/04/08 03:50:29;;;;;;;2.87;1.73;;;;;;;;;;4931336;29;20233;-81
2021/04/08 03:52:57;;;;;;;5.60;1.80;;;;;;;;;;4919680;28;20245;-81
2021/04/08 03:55:25;;;;;;;2.33;1.90;;;;;;;;;;4900982;29;20228;-82
2021/04/08 03:57:54;;;;;;;2.70;1.50;;;;;;;;;;4912727;28;20243;-82
2021/04/08 04:00:22;;;;;;;2.27;1.60;;;;;;;;;;4912994;28;20236;-81
2021/04/08 04:02:51;;;;;;;3.77;1.50;;;;;;;;;;4913349;28;20721;-80
2021/04/08 04:05:19;;;;;;;4.20;1.77;;;;;;;;;;4894678;28;20232;-82
2021/04/08 04:07:50;;;;;;;3.13;1.73;;;;;;;;;;4945701;28;20225;-80
2021/04/08 04:10:21;;;;;;;4.93;1.50;;;;;;;;;;4941547;28;20519;-82
2021/04/08 04:12:51;;;;;;;1.67;1.43;;;;;;;;;;4915250;28;20299;-80
2021/04/08 04:15:19;;;;;;;2.93;1.47;;;;;;;;;;4911508;28;20232;-80
2021/04/08 04:17:49;;;;;;;3.73;1.83;;;;;;;;;;4924355;28;20229;-81
2021/04/08 04:20:19;;;;;;;2.93;1.90;;;;;;;;;;4910815;29;20240;-79
2021/04/08 04:22:47;;;;;;;1.90;1.70;;;;;;;;;;4902226;28;20714;-81
2021/04/08 04:25:15;;;;;;;1.87;1.53;;;;;;;;;;4909083;28;20236;-82
2021/04/08 04:27:43;;;;;;;1.93;1.50;;;;;;;;;;4908555;28;20866;-80
2021/04/08 04:30:12;;;;;;;3.57;1.83;;;;;;;;;;4906104;28;20243;-82
2021/04/08 04:32:39;;;;;;;2.10;1.53;;;;;;;;;;4914472;28;20232;-80
2021/04/08 04:35:08;;;;;;;2.83;1.80;;;;;;;;;;4907380;28;20228;-80
2021/04/08 04:37:37;;;;;;;3.53;1.70;;;;;;;;;;4907895;28;20231;-81
2021/04/08 04:40:11;;;;;;;2.60;1.63;;;;;;;;;;4907017;28;20678;-81
2021/04/08 04:42:39;;;;;;;3.00;1.80;;;;;;;;;;4910528;28;20243;-80
2021/04/08 04:45:07;;;;;;;2.10;1.33;;;;;;;;;;4893066;28;20699;-82
2021/04/08 04:47:35;;;;;;;2.27;1.53;;;;;;;;;;4911080;28;20228;-81
2021/04/08 04:50:04;;;;;;;2.63;1.50;;;;;;;;;;4908530;28;20608;-80
2021/04/08 04:52:31;;;;;;;3.53;1.53;;;;;;;;;;4910465;28;20232;-80
2021/04/08 04:55:00;;;;;;;3.60;1.93;;;;;;;;;;4911030;28;20323;-81
2021/04/08 04:57:27;;;;;;;2.13;1.70;;;;;;;;;;4897587;28;20748;-81
2021/04/08 04:59:55;;;;;;;2.67;1.73;;;;;;;;;;4910834;28;20244;-81
2021/04/08 05:02:23;;;;;;;3.50;1.50;;;;;;;;;;4914916;28;20244;-83
2021/04/08 05:04:50;;;;;;;5.80;1.70;;;;;;;;;;4907128;28;20237;-81
2021/04/08 05:07:18;;;;;;;3.03;1.60;;;;;;;;;;4898664;28;20231;-81
2021/04/08 05:09:46;;;;;;;3.00;1.80;;;;;;;;;;4913163;28;20736;-81
2021/04/08 05:12:14;;;;;;;2.70;1.73;;;;;;;;;;4892264;28;20239;-81
2021/04/08 05:14:42;;;;;;;3.27;1.67;;;;;;;;;;4908873;28;20259;-79
2021/04/08 05:17:09;;;;;;;2.70;1.63;;;;;;;;;;4910643;28;20231;-80
2021/04/08 05:19:37;;;;;;;4.03;1.93;;;;;;;;;;4888619;28;20244;-81
2021/04/08 05:22:05;;;;;;;2.67;1.47;;;;;;;;;;4886405;28;20224;-81
2021/04/08 05:24:32;;;;;;;3.30;1.80;;;;;;;;;;4895836;28;20240;-80
2021/04/08 05:27:00;;;;;;;2.67;1.57;;;;;;;;;;4907078;29;20236;-80
2021/04/08 05:29:28;;;;;;;5.43;1.87;;;;;;;;;;4908573;29;20254;-82
2021/04/08 05:31:56;;;;;;;4.20;1.60;;;;;;;;;;4895842;29;20239;-81
2021/04/08 05:34:23;;;;;;;3.43;1.80;;;;;;;;;;4894484;28;20237;-83
2021/04/08 05:36:51;;;;;;;4.37;1.80;;;;;;;;;;4895927;28;20239;-80
2021/04/08 05:39:19;;;;;;;5.37;1.93;;;;;;;;;;4914583;28;20254;-83
2021/04/08 05:41:46;;;;;;;3.17;1.63;;;;;;;;;;4927611;28;20229;-81
2021/04/08 05:44:14;;;;;;;4.20;1.93;;;;;;;;;;4932012;28;20236;-81
2021/04/08 05:46:42;;;;;;;2.10;1.70;;;;;;;;;;4915844;28;20243;-84
2021/04/08 05:49:10;;;;;;;2.80;1.87;;;;;;;;;;4923723;28;20225;-89
2021/04/08 05:51:37;;;;;;;3.53;1.87;;;;;;;;;;4926100;28;20224;-82
2021/04/08 05:54:07;;;;;;;2.10;1.50;;;;;;;;;;4931657;28;20222;-82
2021/04/08 05:56:35;;;;;;;4.60;2.10;;;;;;;;;;4927783;29;20226;-82
2021/04/08 05:59:02;;;;;;;4.87;1.97;;;;;;;;;;4928664;28;20247;-81
2021/04/08 06:01:30;;;;;;;4.17;1.80;;;;;;;;;;4914784;28;20247;-80
2021/04/08 06:03:58;;;;;;;2.40;1.67;;;;;;;;;;4905485;28;20236;-82
2021/04/08 06:06:26;;;;;;;2.77;1.50;;;;;;;;;;4893357;28;20231;-80
2021/04/08 06:08:54;;;;;;;2.93;1.70;;;;;;;;;;4886685;28;20442;-82
2021/04/08 06:11:21;;;;;;;3.37;1.67;;;;;;;;;;4907009;28;20233;-81
2021/04/08 06:13:50;;;;;;;2.00;1.43;;;;;;;;;;4899846;28;20236;-80
2021/04/08 06:16:17;;;;;;;3.53;1.60;;;;;;;;;;4911406;28;20240;-84
2021/04/08 06:18:46;;;;;;;4.70;1.93;;;;;;;;;;4898508;28;20827;-81
2021/04/08 06:21:15;;;;;;;2.23;1.73;;;;;;;;;;4902607;28;20244;-83
2021/04/08 06:23:43;;;;;;;3.30;1.60;;;;;;;;;;4912735;28;20240;-81
2021/04/08 06:26:11;;;;;;;2.47;1.50;;;;;;;;;;4915484;28;20226;-80
2021/04/08 06:28:39;;;;;;;1.70;1.60;;;;;;;;;;4899609;28;20245;-80
2021/04/08 06:31:07;;;;;;;3.33;1.50;;;;;;;;;;4910725;28;20244;-81
2021/04/08 06:33:35;;;;;;;4.70;2.20;;;;;;;;;;4916081;28;20236;-81
2021/04/08 06:36:08;;;;;;;6.30;2.03;;;;;;;;;;4916773;28;20234;-80
2021/04/08 06:38:37;;;;;;;3.57;1.47;;;;;;;;;;4905625;28;20238;-81
2021/04/08 06:41:05;;;;;;;2.77;1.40;;;;;;;;;;4932835;28;20241;-81
2021/04/08 06:43:37;;;;;;;2.07;1.70;;;;;;;;;;4907357;28;20249;-81
2021/04/08 06:46:07;;;;;;;3.40;1.67;;;;;;;;;;4910118;29;20264;-81
2021/04/08 06:48:51;;;;;;;3.57;1.93;;;;;;;;;;4888400;28;20237;-82
2021/04/08 06:51:20;;;;;;;5.67;1.60;;;;;;;;;;4909613;28;20242;-82
2021/04/08 06:53:49;;;;;;;1.50;1.20;;;;;;;;;;4911227;28;20235;-82
2021/04/08 06:56:18;;;;;;;3.10;1.50;;;;;;;;;;4888702;28;20973;-84
2021/04/08 06:58:45;;;;;;;2.30;1.50;;;;;;;;;;4909256;28;20254;-82
2021/04/08 07:01:33;;;;;;;5.17;1.80;;;;;;;;;;4888280;28;20259;-81
2021/04/08 07:04:01;;;;;;;1.40;1.20;;;;;;;;;;4900425;28;20720;-81
2021/04/08 07:06:29;;;;;;;3.00;1.37;;;;;;;;;;4891250;28;20231;-80
2021/04/08 07:08:58;;;;;;;6.67;1.60;;;;;;;;;;4907826;28;20243;-83
2021/04/08 07:11:26;;;;;;;2.50;1.60;;;;;;;;;;4902773;28;20713;-80
2021/04/08 07:13:54;;;;;;;6.97;1.67;;;;;;;;;;4888968;29;20236;-82
2021/04/08 07:16:22;;;;;;;3.53;1.60;;;;;;;;;;4886646;28;20242;-82
2021/04/08 07:18:50;;;;;;;2.87;1.43;;;;;;;;;;4895486;28;20675;-82
2021/04/08 07:21:18;;;;;;;2.30;1.50;;;;;;;;;;4906652;28;20713;-83
2021/04/08 07:24:07;;;;;;;1.97;1.33;;;;;;;;;;4914456;29;20230;-82
2021/04/08 07:26:51;;;;;;;3.50;1.60;;;;;;;;;;4990250;28;21443;-89
2021/04/08 07:29:18;;;;;;;1.93;1.50;;;;;;;;;;4904552;29;20232;-80
2021/04/08 07:31:46;;;;;;;2.50;1.63;;;;;;;;;;4907052;28;20240;-82
2021/04/08 07:34:32;;;;;;;2.03;1.40;;;;;;;;;;4903034;28;20589;-82
2021/04/08 07:37:00;;;;;;;2.60;1.27;;;;;;;;;;4906210;28;20227;-82
2021/04/08 07:39:35;;;;;;;1.83;1.40;;;;;;;;;;4915096;28;20254;-83
2021/04/08 07:42:05;;;;;;;1.67;1.27;;;;;;;;;;4891659;28;20232;-81
2021/04/08 07:44:47;;;;;;;3.17;1.40;;;;;;;;;;4916195;28;20231;-81
2021/04/08 07:47:17;;;;;;;1.20;1.07;;;;;;;;;;4905705;28;20243;-81
2021/04/08 07:49:46;;;;;;;2.73;1.40;;;;;;;;;;4900956;28;20255;-82
2021/04/08 07:52:19;;;;;;;3.33;1.23;;;;;;;;;;4900564;28;20224;-80
2021/04/08 07:55:03;;;;;;;3.73;1.70;;;;;;;;;;4897313;28;20244;-81
2021/04/08 07:57:32;;;;;;;1.53;1.17;;;;;;;;;;4898493;28;20478;-81
2021/04/08 08:00:16;;;;;;;1.83;1.13;;;;;;;;;;4916336;28;20606;-83
2021/04/08 08:02:44;;;;;;;2.23;1.10;;;;;;;;;;5005826;28;20224;-81
2021/04/08 08:05:17;;;;;;;2.70;1.40;;;;;;;;;;4886714;28;20615;-82
2021/04/08 08:07:44;;;;;;;3.83;1.47;;;;;;;;;;4900946;28;20228;-83
2021/04/08 08:10:19;;;;;;;3.07;2.07;;;;;;;;;;4901962;28;20256;-82
2021/04/08 08:12:47;;;;;;;4.73;1.47;;;;;;;;;;4907146;28;20222;-81
2021/04/08 08:15:18;;;;;;;3.17;1.50;;;;;;;;;;4887149;28;20327;-82
2021/04/08 08:17:46;;;;;;;3.10;1.47;;;;;;;;;;4886935;28;20553;-80
2021/04/08 08:20:16;;;;;;;4.27;1.90;;;;;;;;;;4905910;28;20709;-81
2021/04/08 08:22:45;;;;;;;2.77;1.70;;;;;;;;;;4907201;28;20267;-81
2021/04/08 08:25:21;;;;;;;7.53;1.83;;;;;;;;;;4901883;28;20233;-80
2021/04/08 08:27:51;;;;;;;2.17;1.40;;;;;;;;;;4892140;28;20236;-81
2021/04/08 08:30:22;;;;;;;4.00;1.90;;;;;;;;;;4908952;28;20216;-85
2021/04/08 08:33:15;;;;;;;4.43;1.67;;;;;;;;;;4924568;28;20229;-81
2021/04/08 08:35:43;;;;;;;3.17;1.73;;;;;;;;;;4942806;28;20222;-82
2021/04/08 08:38:15;;;;;;;5.13;2.00;;;;;;;;;;4901515;28;20259;-83
2021/04/08 08:40:46;;;;;;;1.70;1.40;;;;;;;;;;4884907;28;20247;-81
2021/04/08 08:43:16;;;;;;;3.00;2.00;;;;;;;;;;4885275;28;20239;-83
2021/04/08 08:45:44;;;;;;;2.23;1.67;;;;;;;;;;4887461;28;20595;-82
2021/04/08 08:48:16;;;;;;;2.93;1.93;;;;;;;;;;4901584;28;20728;-81
2021/04/08 08:50:44;;;;;;;2.83;1.97;;;;;;;;;;4908918;28;20225;-81
2021/04/08 08:53:12;;;;;;;2.83;1.50;;;;;;;;;;4896943;28;20244;-80
2021/04/08 08:55:40;;;;;;;5.73;2.23;;;;;;;;;;4906720;28;20239;-80
2021/04/08 08:58:12;;;;;;;4.20;1.90;;;;;;;;;;4892903;28;20236;-80
2021/04/08 09:00:41;;;;;;;3.23;1.90;;;;;;;;;;4907761;28;20238;-85
2021/04/08 09:03:28;;;;;;;2.60;1.67;;;;;;;;;;4911878;28;20241;-81
2021/04/08 09:06:12;;;;;;;3.67;1.97;;;;;;;;;;4904023;28;20255;-84
2021/04/08 09:09:05;;;;;;;5.03;2.17;;;;;;;;;;4890520;28;20642;-82
2021/04/08 09:11:34;;;;;;;3.30;2.37;;;;;;;;;;4947820;28;20236;-81
2021/04/08 09:14:03;;;;;;;2.83;1.90;;;;;;;;;;4910991;28;20229;-83
2021/04/08 09:16:33;;;;;;;4.97;2.43;;;;;;;;;;4892790;28;20626;-82
2021/04/08 09:19:03;;;;;;;3.40;2.20;;;;;;;;;;4912774;29;20596;-83
2021/04/08 09:21:44;;;;;;;3.63;2.50;;;;;;;;;;4905801;28;20236;-84
2021/04/08 09:24:18;;;;;;;3.70;2.07;;;;;;;;;;4928662;28;20235;-81
2021/04/08 09:26:50;;;;;;;6.53;3.13;;;;;;;;;;4992961;28;20245;-82
2021/04/08 09:29:45;;;;;;;2.40;2.20;;;;;;;;;;4906815;28;20236;-84
2021/04/08 09:32:24;;;;;;;2.40;2.00;;;;;;;;;;4905799;28;20237;-81
2021/04/08 09:35:17;;;;;;;3.60;2.20;;;;;;;;;;4906459;28;20728;-81
2021/04/08 09:38:13;;;;;;;2.77;2.10;;;;;;;;;;4900241;28;20241;-82
2021/04/08 09:40:57;;;;;;;3.27;2.20;;;;;;;;;;4915818;28;20244;-81
2021/04/08 09:43:29;;;;;;;2.90;2.10;;;;;;;;;;4912392;28;20233;-82
2021/04/08 09:46:09;;;;;;;2.60;2.40;;;;;;;;;;4910888;28;20261;-83
2021/04/08 09:48:52;;;;;;;3.70;2.13;;;;;;;;;;4896491;29;20239;-82
2021/04/08 09:51:32;;;;;;;3.97;2.30;;;;;;;;;;4907847;28;20227;-83
2021/04/08 09:54:08;;;;;;;3.43;1.80;;;;;;;;;;4907428;28;20235;-82
2021/04/08 09:56:45;;;;;;;3.13;1.90;;;;;;;;;;4903806;28;20241;-83
2021/04/08 09:59:13;;;;;;;2.87;2.13;;;;;;;;;;4905284;28;20422;-86
2021/04/08 10:01:41;;;;;;;3.33;2.30;;;;;;;;;;4910710;29;20253;-81
2021/04/08 10:04:21;;;;;;;2.40;2.17;;;;;;;;;;4909724;28;20235;-80
2021/04/08 10:07:00;;;;;;;4.03;2.20;;;;;;;;;;4910137;28;20231;-82
2021/04/08 10:09:28;;;;;;;3.47;2.33;;;;;;;;;;4905637;29;20734;-82
2021/04/08 10:11:55;;;;;;;3.97;2.40;;;;;;;;;;4890568;28;20231;-81
2021/04/08 10:14:26;;;;;;;5.10;2.53;;;;;;;;;;4903665;28;20225;-82
2021/04/08 10:17:06;;;;;;;3.37;2.33;;;;;;;;;;4916222;28;20639;-82
2021/04/08 10:19:37;;;;;;;4.20;2.30;;;;;;;;;;4890054;28;20235;-81
2021/04/08 10:22:06;;;;;;;3.73;2.30;;;;;;;;;;4891494;28;20608;-81
2021/04/08 10:24:38;;;;;;;3.60;2.40;;;;;;;;;;4908496;28;20240;-83
2021/04/08 10:27:14;;;;;;;5.87;2.20;;;;;;;;;;4893819;28;20246;-81
2021/04/08 10:29:44;;;;;;;4.20;2.50;;;;;;;;;;4902891;28;20601;-82
2021/04/08 10:32:11;;;;;;;3.23;2.43;;;;;;;;;;4906100;28;20231;-82
2021/04/08 10:34:42;;;;;;;5.40;2.50;;;;;;;;;;4907505;28;20259;-85
2021/04/08 10:37:09;;;;;;;5.63;2.23;;;;;;;;;;4917563;28;20228;-81
2021/04/08 10:39:39;;;;;;;3.03;2.40;;;;;;;;;;4891837;28;20248;-82
2021/04/08 10:42:09;;;;;;;3.53;2.50;;;;;;;;;;4901087;28;20240;-83
2021/04/08 10:44:39;;;;;;;3.97;2.40;;;;;;;;;;4910348;28;20232;-82
2021/04/08 10:47:12;;;;;;;3.77;2.20;;;;;;;;;;4901710;28;20243;-83
2021/04/08 10:49:45;;;;;;;3.90;2.70;;;;;;;;;;4885087;28;20228;-81
2021/04/08 10:52:14;;;;;;;3.20;2.40;;;;;;;;;;4892707;28;20227;-81
2021/04/08 10:54:44;;;;;;;3.20;2.23;;;;;;;;;;4884195;28;20225;-81
2021/04/08 10:57:14;;;;;;;4.90;2.70;;;;;;;;;;4876836;28;20655;-81
2021/04/08 10:59:43;;;;;;;3.53;2.43;;;;;;;;;;4905307;28;20247;-81
2021/04/08 11:02:21;;;;;;;3.20;2.43;;;;;;;;;;4892015;29;20232;-81
2021/04/08 11:04:51;;;;;;;3.57;2.83;;;;;;;;;;4889372;28;20246;-80
2021/04/08 11:07:19;;;;;;;3.07;2.23;;;;;;;;;;4892029;28;20610;-82
2021/04/08 11:09:47;;;;;;;3.13;2.27;;;;;;;;;;4886242;29;20750;-84
2021/04/08 11:12:17;;;;;;;4.93;2.33;;;;;;;;;;4899896;28;20548;-81
2021/04/08 11:14:45;;;;;;;3.13;2.63;;;;;;;;;;4892903;28;20228;-81
2021/04/08 11:17:14;;;;;;;4.73;2.30;;;;;;;;;;4878378;28;20232;-80
2021/04/08 11:19:42;;;;;;;5.73;3.20;;;;;;;;;;4900592;28;20237;-83
2021/04/08 11:22:17;;;;;;;4.13;2.30;;;;;;;;;;4923979;28;20236;-81
2021/04/08 11:24:46;;;;;;;5.33;2.73;;;;;;;;;;4910575;28;20236;-82
2021/04/08 11:27:14;;;;;;;2.37;2.17;;;;;;;;;;4900358;28;20235;-82
2021/04/08 11:29:42;;;;;;;3.27;2.63;;;;;;;;;;4924525;28;20249;-80
2021/04/08 11:32:11;;;;;;;3.93;2.47;;;;;;;;;;4904558;28;20236;-79
2021/04/08 11:34:41;;;;;;;3.13;2.30;;;;;;;;;;4914150;28;20246;-78
2021/04/08 11:37:09;;;;;;;3.00;2.80;;;;;;;;;;4893084;28;20232;-79
2021/04/08 11:39:38;;;;;;;2.37;2.17;;;;;;;;;;4886880;28;20225;-80
2021/04/08 11:42:20;;;;;;;3.00;2.28;;;;;;;;;;4902439;28;20698;-82
2021/04/08 11:44:49;;;;;;;5.70;2.30;;;;;;;;;;4900489;28;20228;-81
2021/04/08 11:47:17;;;;;;;3.10;2.65;;;;;;;;;;4910534;28;20599;-80
2021/04/08 11:49:47;;;;;;;3.33;2.53;;;;;;;;;;4986310;28;20618;-80
2021/04/08 11:52:17;;;;;;;2.78;2.30;;;;;;;;;;4890951;28;20236;-80
2021/04/08 11:55:07;;;;;;;2.75;2.40;;;;;;;;;;4906693;29;20229;-80
2021/04/08 11:57:35;;;;;;;3.60;2.78;;;;;;;;;;5002553;28;20233;-80
2021/04/08 12:00:09;;;;;;;2.53;2.30;;;;;;;;;;5008730;28;20237;-80
2021/04/08 12:02:37;;;;;;;2.83;2.30;;;;;;;;;;4991792;28;20229;-79
2021/04/08 12:05:08;;;;;;;2.80;2.10;;;;;;;;;;5007410;28;20737;-80
2021/04/08 12:07:44;;;;;;;3.08;2.50;;;;;;;;;;4992789;28;20216;-82
2021/04/08 12:10:24;;;;;;;3.28;2.33;;;;;;;;;;5007809;28;20232;-81
2021/04/08 12:12:56;;;;;;;3.45;2.72;;;;;;;;;;5006546;28;20718;-80
2021/04/08 12:15:47;;;;;;;2.75;2.47;;;;;;;;;;5007297;28;20559;-78
2021/04/08 12:18:19;;;;;;;2.50;2.30;;;;;;;;;;4997190;28;20235;-78
2021/04/08 12:20:48;;;;;;;2.50;2.25;;;;;;;;;;5012316;28;20229;-78
2021/04/08 12:23:19;;;;;;;4.50;2.28;;;;;;;;;;5005063;28;20216;-79
2021/04/08 12:25:50;;;;;;;5.05;2.28;;;;;;;;;;4984014;28;20232;-79
2021/04/08 12:28:19;;;;;;;2.55;2.13;;;;;;;;;;5004564;28;20764;-78
2021/04/08 12:30:56;;;;;;;3.20;2.40;;;;;;;;;;4984271;28;20230;-79
2021/04/08 12:33:25;;;;;;;2.20;2.00;;;;;;;;;;4981323;28;20628;-78
2021/04/08 12:35:53;;;;;;;2.85;2.00;;;;;;;;;;4998965;28;20249;-78
2021/04/08 12:38:21;;;;;;;4.35;2.58;;;;;;;;;;5010814;28;20224;-78
2021/04/08 12:40:50;;;;;;;2.45;2.25;;;;;;;;;;4984224;28;20510;-78
2021/04/08 12:43:18;;;;;;;2.58;2.28;;;;;;;;;;4913630;29;20251;-77
2021/04/08 12:45:46;;;;;;;3.17;2.65;;;;;;;;;;4901447;28;20232;-79
2021/04/08 12:48:14;;;;;;;2.50;2.30;;;;;;;;;;4903353;28;20236;-78
2021/04/08 12:50:44;;;;;;;2.70;1.95;;;;;;;;;;4903590;28;20236;-78
2021/04/08 12:53:12;;;;;;;4.45;2.60;;;;;;;;;;4880763;28;20229;-78
2021/04/08 12:55:41;;;;;;;3.20;2.22;;;;;;;;;;4909187;29;20232;-79
2021/04/08 12:58:10;;;;;;;5.03;2.50;;;;;;;;;;4909238;28;20232;-78
2021/04/08 13:00:37;;;;;;;2.70;2.50;;;;;;;;;;4971355;28;20244;-78
2021/04/08 13:03:06;;;;;;;2.53;2.17;;;;;;;;;;4907998;29;20690;-78
2021/04/08 13:05:34;;;;;;;3.28;2.47;;;;;;;;;;4893334;28;20239;-80
2021/04/08 13:08:02;;;;;;;3.20;2.65;;;;;;;;;;4887454;28;20235;-80
2021/04/08 13:10:30;;;;;;;2.47;2.17;;;;;;;;;;4911832;29;20239;-81
2021/04/08 13:12:58;;;;;;;2.45;2.25;;;;;;;;;;4911237;28;20224;-80
2021/04/08 13:15:27;;;;;;;2.50;1.83;;;;;;;;;;4893720;28;20240;-80
2021/04/08 13:17:56;;;;;;;2.75;2.15;;;;;;;;;;4912556;28;20229;-80
2021/04/08 13:20:25;;;;;;;2.08;1.92;;;;;;;;;;4918558;28;20244;-81
2021/04/08 13:22:52;;;;;;;2.38;2.17;;;;;;;;;;4908286;29;20645;-81
2021/04/08 13:25:21;;;;;;;2.17;1.98;;;;;;;;;;4897587;28;20233;-80
2021/04/08 13:27:50;;;;;;;2.00;1.80;;;;;;;;;;4979703;28;20237;-80
2021/04/08 13:30:21;;;;;;;5.93;2.00;;;;;;;;;;4925512;28;20244;-78
2021/04/08 13:32:50;;;;;;;4.47;2.33;;;;;;;;;;4911391;28;20232;-78
2021/04/08 13:35:21;;;;;;;2.65;2.45;;;;;;;;;;4961362;28;20251;-78
2021/04/08 13:37:49;;;;;;;3.88;2.63;;;;;;;;;;4911909;28;20247;-78
2021/04/08 13:40:18;;;;;;;4.60;2.38;;;;;;;;;;4911769;29;20235;-78
2021/04/08 13:42:46;;;;;;;6.20;2.55;;;;;;;;;;4907534;29;20237;-79
2021/04/08 13:45:17;;;;;;;2.55;2.35;;;;;;;;;;4915532;29;20338;-80
2021/04/08 13:47:45;;;;;;;2.67;2.30;;;;;;;;;;4914655;28;20244;-80
2021/04/08 13:50:14;;;;;;;3.17;2.30;;;;;;;;;;4929593;28;20234;-80
2021/04/08 13:52:41;;;;;;;3.13;2.60;;;;;;;;;;4922996;28;20233;-80
2021/04/08 13:55:11;;;;;;;4.22;2.20;;;;;;;;;;4926588;29;20228;-80
2021/04/08 13:57:40;;;;;;;3.00;2.30;;;;;;;;;;4907842;28;20235;-80
2021/04/08 14:00:12;;;;;;;2.53;2.33;;;;;;;;;;4907180;28;20252;-78
2021/04/08 14:02:41;;;;;;;3.08;2.35;;;;;;;;;;4904079;28;20726;-79
2021/04/08 14:05:11;;;;;;;2.20;2.00;;;;;;;;;;4902059;28;20225;-78
2021/04/08 14:07:40;;;;;;;2.75;2.20;;;;;;;;;;4913636;28;20243;-80
2021/04/08 14:10:10;;;;;;;2.30;2.10;;;;;;;;;;4938632;28;20244;-80
2021/04/08 14:12:38;;;;;;;2.40;2.20;;;;;;;;;;4935729;28;20228;-80
2021/04/08 14:15:07;;;;;;;2.30;2.10;;;;;;;;;;4941132;28;20222;-79
2021/04/08 14:17:34;;;;;;;2.50;2.30;;;;;;;;;;4979867;28;20216;-80
2021/04/08 14:20:04;;;;;;;2.50;2.30;;;;;;;;;;4932922;28;20219;-80
2021/04/08 14:22:32;;;;;;;2.63;2.40;;;;;;;;;;4913372;28;20247;-79
2021/04/08 14:25:01;;;;;;;2.63;2.10;;;;;;;;;;4908093;29;20228;-79
2021/04/08 14:27:29;;;;;;;3.35;2.35;;;;;;;;;;4913329;29;20395;-78
2021/04/08 14:29:56;;;;;;;3.40;2.55;;;;;;;;;;4912657;28;20232;-80
2021/04/08 14:32:24;;;;;;;2.40;2.20;;;;;;;;;;4915250;28;20235;-80
2021/04/08 14:34:52;;;;;;;3.30;2.47;;;;;;;;;;4914671;29;20576;-80
2021/04/08 14:37:21;;;;;;;2.40;2.20;;;;;;;;;;4909435;28;20236;-80
2021/04/08 14:39:48;;;;;;;2.50;2.20;;;;;;;;;;4927340;29;20246;-80
2021/04/08 14:42:17;;;;;;;2.60;2.20;;;;;;;;;;4927918;28;20232;-80
2021/04/08 14:44:44;;;;;;;2.30;2.10;;;;;;;;;;4926882;28;20246;-80
2021/04/08 14:47:12;;;;;;;2.75;2.42;;;;;;;;;;4914048;29;20233;-80
2021/04/08 14:49:39;;;;;;;2.20;2.10;;;;;;;;;;4920627;28;20337;-80
2021/04/08 14:52:07;;;;;;;3.40;2.67;;;;;;;;;;4899588;29;20229;-80
2021/04/08 14:54:35;;;;;;;2.80;2.50;;;;;;;;;;4911693;28;20259;-80
2021/04/08 14:57:02;;;;;;;2.40;2.10;;;;;;;;;;4903563;28;20733;-80
2021/04/08 14:59:31;;;;;;;4.15;2.40;;;;;;;;;;4896178;28;20240;-79
2021/04/08 15:01:59;;;;;;;2.55;2.20;;;;;;;;;;4919233;28;20759;-80